Time;durP1;ratioP1;P1;durP2;ratioP2;P2;SDS_P1;SDS_P2;PMS_P1;PMS_P2;Temp;Humidity;BMP_temperature;BMP_pressure;BME280_temperature;BME280_humidity;BME280_pressure;Samples;Min_cycle;Max_cycle;Signal;HPM_P1;HPM_P2
2022/10/28 00:00:50;;;;;;;89.70;33.88;;;11.70;99.90;;;;;;5016510;28;20061;-73
2022/10/28 00:03:17;;;;;;;78.30;33.78;;;11.80;99.90;;;;;;5034106;28;20034;-73
2022/10/28 00:05:43;;;;;;;110.25;33.25;;;11.80;99.90;;;;;;5034091;28;20029;-73
2022/10/28 00:08:09;;;;;;;88.68;32.25;;;11.80;99.90;;;;;;5035707;28;20592;-73
2022/10/28 00:10:35;;;;;;;78.93;32.10;;;11.70;99.90;;;;;;5036455;28;20105;-73
2022/10/28 00:13:00;;;;;;;79.47;32.30;;;11.70;99.90;;;;;;5016595;28;20129;-73
2022/10/28 00:15:26;;;;;;;68.05;30.15;;;11.70;99.90;;;;;;5034092;28;20030;-73
2022/10/28 00:17:52;;;;;;;64.80;29.95;;;11.70;99.90;;;;;;5016348;28;20021;-73
2022/10/28 00:20:18;;;;;;;66.47;30.55;;;11.70;99.90;;;;;;5021941;28;20029;-73
2022/10/28 00:22:44;;;;;;;65.68;30.88;;;11.70;99.90;;;;;;5019136;28;20497;-73
2022/10/28 00:25:10;;;;;;;63.40;31.45;;;11.70;99.90;;;;;;5018293;28;20171;-73
2022/10/28 00:27:35;;;;;;;66.25;32.05;;;11.70;99.90;;;;;;5034106;28;20021;-73
2022/10/28 00:30:01;;;;;;;68.85;31.80;;;11.70;99.90;;;;;;5033801;28;20473;-73
2022/10/28 00:32:30;;;;;;;68.40;31.45;;;11.70;99.90;;;;;;5015914;28;20492;-73
2022/10/28 00:34:57;;;;;;;65.45;30.83;;;11.70;99.90;;;;;;5034020;28;20040;-73
2022/10/28 00:37:22;;;;;;;58.75;28.65;;;11.70;99.90;;;;;;5016042;28;20029;-73
2022/10/28 00:39:48;;;;;;;59.88;29.08;;;11.80;99.90;;;;;;5033690;28;20381;-73
2022/10/28 00:42:17;;;;;;;69.05;32.00;;;11.80;99.90;;;;;;5033742;28;20539;-73
2022/10/28 00:44:55;;;;;;;65.75;31.30;;;11.80;99.90;;;;;;5020013;28;20026;-73
2022/10/28 00:48:01;;;;;;;68.15;32.38;;;11.70;99.90;;;;;;5020330;28;20033;-73
2022/10/28 00:50:42;;;;;;;83.63;32.47;;;11.70;99.90;;;;;;5008719;28;20033;-73
2022/10/28 00:53:16;;;;;;;64.38;28.77;;;11.70;99.90;;;;;;5038550;28;20052;-73
2022/10/28 00:55:44;;;;;;;68.90;29.42;;;11.70;99.90;;;;;;5037641;28;20048;-73
2022/10/28 00:58:10;;;;;;;71.53;31.65;;;11.70;99.90;;;;;;5041037;28;20091;-74
2022/10/28 01:00:36;;;;;;;70.72;30.63;;;11.60;99.90;;;;;;5041839;28;20071;-73
2022/10/28 01:03:02;;;;;;;65.00;30.23;;;11.60;99.90;;;;;;5038238;28;20065;-73
2022/10/28 01:05:31;;;;;;;72.95;31.15;;;11.60;99.90;;;;;;5038169;28;20025;-73
2022/10/28 01:08:00;;;;;;;71.47;29.88;;;11.70;99.90;;;;;;5040606;28;20018;-75
2022/10/28 01:10:31;;;;;;;;;;;11.60;99.90;;;;;;5028827;28;20064;-73
2022/10/28 01:13:13;;;;;;;66.57;29.67;;;11.60;99.90;;;;;;5022212;28;19920;-73
2022/10/28 01:16:13;;;;;;;65.30;29.67;;;11.60;99.90;;;;;;5038465;28;20108;-74
2022/10/28 01:18:47;;;;;;;65.63;29.95;;;11.60;99.90;;;;;;5017624;28;20044;-73
2022/10/28 01:21:25;;;;;;;67.75;29.05;;;11.60;99.90;;;;;;5019760;28;20030;-73
2022/10/28 01:24:15;;;;;;;68.30;29.27;;;11.70;99.90;;;;;;5019266;28;20049;-73
2022/10/28 01:27:22;;;;;;;62.28;28.42;;;11.70;99.90;;;;;;5019851;28;20018;-76
2022/10/28 01:29:57;;;;;;;57.58;26.98;;;11.70;99.90;;;;;;4992606;28;20458;-73
2022/10/28 01:32:25;;;;;;;57.92;26.92;;;11.70;99.90;;;;;;5019339;28;20042;-73
2022/10/28 01:35:03;;;;;;;60.13;28.63;;;11.60;99.90;;;;;;5037385;28;20033;-73
2022/10/28 01:37:57;;;;;;;60.88;27.42;;;11.60;99.90;;;;;;5036985;28;20033;-74
2022/10/28 01:40:25;;;;;;;53.63;25.85;;;11.60;99.90;;;;;;5036071;28;20148;-73
2022/10/28 01:43:11;;;;;;;56.00;25.65;;;11.60;99.90;;;;;;5019572;28;20029;-73
2022/10/28 01:46:07;;;;;;;55.00;25.77;;;11.60;99.90;;;;;;5018953;28;20025;-73
2022/10/28 01:48:35;;;;;;;62.03;26.80;;;11.60;99.90;;;;;;5032442;28;20064;-73
2022/10/28 01:51:08;;;;;;;55.63;25.73;;;11.70;99.90;;;;;;5018774;28;20461;-72
2022/10/28 01:53:37;;;;;;;57.92;26.17;;;11.70;99.90;;;;;;5036030;28;20918;-72
2022/10/28 01:56:11;;;;;;;57.22;26.80;;;11.70;99.90;;;;;;5036034;28;20029;-73
2022/10/28 01:58:38;;;;;;;59.15;27.25;;;11.70;99.90;;;;;;5040570;28;20029;-73
2022/10/28 02:01:06;;;;;;;55.17;26.38;;;11.60;99.90;;;;;;5039275;28;20057;-73
2022/10/28 02:03:32;;;;;;;57.22;27.05;;;11.60;99.90;;;;;;5036715;28;20033;-73
2022/10/28 02:06:02;;;;;;;57.13;25.65;;;11.60;99.90;;;;;;5036320;28;20029;-73
2022/10/28 02:09:05;;;;;;;55.15;27.55;;;11.70;99.90;;;;;;5036216;28;20084;-73
2022/10/28 02:11:46;;;;;;;53.97;25.80;;;11.70;99.90;;;;;;4975635;28;20072;-73
2022/10/28 02:14:20;;;;;;;55.97;25.65;;;11.60;99.90;;;;;;5037290;28;20029;-73
2022/10/28 02:16:59;;;;;;;56.50;25.08;;;11.60;99.90;;;;;;5037660;28;20029;-73
2022/10/28 02:19:46;;;;;;;57.20;25.45;;;11.60;99.90;;;;;;5036277;28;20038;-73
2022/10/28 02:22:30;;;;;;;51.97;25.25;;;11.60;99.90;;;;;;5036435;28;20457;-73
2022/10/28 02:25:04;;;;;;;49.97;25.70;;;11.60;99.90;;;;;;5036106;28;20041;-73
2022/10/28 02:27:30;;;;;;;51.35;24.27;;;11.60;99.90;;;;;;5035972;28;20485;-73
2022/10/28 02:30:03;;;;;;;49.03;24.52;;;11.60;99.90;;;;;;5036648;28;20060;-73
2022/10/28 02:32:32;;;;;;;52.53;25.15;;;11.60;99.90;;;;;;5018589;28;20044;-73
2022/10/28 02:35:02;;;;;;;46.13;23.58;;;11.60;99.90;;;;;;5035738;28;20108;-72
2022/10/28 02:37:31;;;;;;;46.08;24.85;;;11.60;99.90;;;;;;5036129;28;20021;-73
2022/10/28 02:40:01;;;;;;;49.17;22.73;;;11.60;99.90;;;;;;5018012;28;20025;-73
2022/10/28 02:42:32;;;;;;;45.40;22.98;;;11.60;99.90;;;;;;5036009;28;20034;-73
2022/10/28 02:45:05;;;;;;;45.42;24.00;;;11.60;99.90;;;;;;5017962;28;20432;-73
2022/10/28 02:47:34;;;;;;;40.83;23.45;;;11.60;99.90;;;;;;5017782;28;20029;-73
2022/10/28 02:50:06;;;;;;;46.38;22.63;;;11.60;99.90;;;;;;5035900;28;20029;-73
2022/10/28 02:52:33;;;;;;;39.90;21.55;;;11.60;99.90;;;;;;5035310;28;20144;-73
2022/10/28 02:55:05;;;;;;;43.33;22.77;;;11.50;99.90;;;;;;5017578;28;20033;-73
2022/10/28 02:57:38;;;;;;;43.28;22.88;;;11.50;99.90;;;;;;5018177;28;20033;-73
2022/10/28 03:00:09;;;;;;;45.60;22.08;;;11.50;99.90;;;;;;5035314;28;20100;-73
2022/10/28 03:02:35;;;;;;;35.63;20.95;;;11.60;99.90;;;;;;5036037;28;20033;-73
2022/10/28 03:05:04;;;;;;;40.63;22.30;;;11.50;99.90;;;;;;5034742;28;20029;-73
2022/10/28 03:07:29;;;;;;;40.65;21.70;;;11.50;99.90;;;;;;5035376;28;20029;-73
2022/10/28 03:09:55;;;;;;;40.25;21.38;;;11.60;99.90;;;;;;5035195;28;20032;-73
2022/10/28 03:12:20;;;;;;;41.20;21.70;;;11.60;99.90;;;;;;5034906;28;20047;-72
2022/10/28 03:14:46;;;;;;;41.25;22.40;;;11.60;99.90;;;;;;5035022;28;20022;-73
2022/10/28 03:17:12;;;;;;;41.20;20.42;;;11.60;99.90;;;;;;5017150;28;20495;-73
2022/10/28 03:19:37;;;;;;;35.22;20.77;;;11.60;99.90;;;;;;5034947;28;20029;-73
2022/10/28 03:22:03;;;;;;;35.00;20.52;;;11.50;99.90;;;;;;5034840;28;20036;-73
2022/10/28 03:24:29;;;;;;;38.20;20.90;;;11.50;99.90;;;;;;5034721;28;20161;-73
2022/10/28 03:26:54;;;;;;;34.58;19.50;;;11.50;99.90;;;;;;5016923;28;20032;-73
2022/10/28 03:29:20;;;;;;;35.83;20.33;;;11.50;99.90;;;;;;5035387;28;20033;-73
2022/10/28 03:31:46;;;;;;;37.78;19.88;;;11.50;99.90;;;;;;5035738;28;20040;-72
2022/10/28 03:34:11;;;;;;;36.47;20.85;;;11.50;99.90;;;;;;5034868;28;20033;-73
2022/10/28 03:36:37;;;;;;;32.58;18.45;;;11.50;99.90;;;;;;5034728;28;20021;-73
2022/10/28 03:39:03;;;;;;;37.45;20.08;;;11.50;99.90;;;;;;5016969;28;20120;-73
2022/10/28 03:41:28;;;;;;;32.75;18.77;;;11.50;99.90;;;;;;5034217;28;20144;-72
2022/10/28 03:43:54;;;;;;;32.85;19.35;;;11.50;99.90;;;;;;5034266;28;20497;-73
2022/10/28 03:46:20;;;;;;;35.10;19.65;;;11.50;99.90;;;;;;5034967;28;20029;-72
2022/10/28 03:48:45;;;;;;;35.85;18.77;;;11.50;99.90;;;;;;5034782;28;20030;-72
2022/10/28 03:51:11;;;;;;;33.78;19.65;;;11.40;99.90;;;;;;5016660;28;20033;-73
2022/10/28 03:53:37;;;;;;;35.35;18.48;;;11.40;99.90;;;;;;5016821;28;20029;-72
2022/10/28 03:56:02;;;;;;;35.97;19.45;;;11.50;99.90;;;;;;5033897;28;20442;-73
2022/10/28 03:58:28;;;;;;;29.92;17.73;;;11.40;99.90;;;;;;5018377;28;20040;-72
2022/10/28 04:00:55;;;;;;;28.77;17.30;;;11.40;99.90;;;;;;5038257;28;20040;-73
2022/10/28 04:03:22;;;;;;;29.08;17.60;;;11.30;99.90;;;;;;5034406;28;20034;-72
2022/10/28 04:05:48;;;;;;;27.83;17.60;;;11.40;99.90;;;;;;5033985;28;20073;-72
2022/10/28 04:08:15;;;;;;;29.52;17.02;;;11.40;99.90;;;;;;5016050;28;20056;-72
2022/10/28 04:10:42;;;;;;;30.00;17.52;;;11.40;99.90;;;;;;5033997;28;20025;-72
2022/10/28 04:13:08;;;;;;;26.27;16.63;;;11.40;99.90;;;;;;5016207;28;20036;-72
2022/10/28 04:15:33;;;;;;;29.67;18.42;;;11.40;99.90;;;;;;5033974;28;20025;-73
2022/10/28 04:17:59;;;;;;;31.58;18.15;;;11.40;99.90;;;;;;5033203;28;20031;-72
2022/10/28 04:20:26;;;;;;;31.98;18.90;;;11.40;99.90;;;;;;5034080;28;20147;-72
2022/10/28 04:22:53;;;;;;;34.95;19.23;;;11.40;99.90;;;;;;5036815;28;20053;-73
2022/10/28 04:25:20;;;;;;;32.20;18.95;;;11.40;99.90;;;;;;5021445;28;20057;-72
2022/10/28 04:27:46;;;;;;;33.17;18.98;;;11.30;99.90;;;;;;5036851;28;20036;-72
2022/10/28 04:30:13;;;;;;;33.00;18.42;;;11.30;99.90;;;;;;5034630;28;20030;-72
2022/10/28 04:32:42;;;;;;;35.75;19.15;;;11.30;99.90;;;;;;5033834;28;20061;-73
2022/10/28 04:35:09;;;;;;;;;;;11.40;99.90;;;;;;5034323;28;20056;-72
2022/10/28 04:37:35;;;;;;;31.23;18.85;;;11.40;99.90;;;;;;5018935;28;19955;-72
2022/10/28 04:40:01;;;;;;;36.35;19.17;;;11.30;99.90;;;;;;5039783;28;20029;-74
2022/10/28 04:42:26;;;;;;;32.00;18.73;;;11.30;99.90;;;;;;5036397;28;20096;-73
2022/10/28 04:44:52;;;;;;;36.65;19.95;;;11.30;99.90;;;;;;5033910;28;20420;-73
2022/10/28 04:47:18;;;;;;;35.00;19.52;;;11.30;99.90;;;;;;5015936;28;20021;-73
2022/10/28 04:49:44;;;;;;;33.08;19.80;;;11.30;99.90;;;;;;5033847;28;20097;-73
2022/10/28 04:52:10;;;;;;;33.00;19.73;;;11.30;99.90;;;;;;5036105;28;20037;-72
2022/10/28 04:54:35;;;;;;;32.47;17.77;;;11.30;99.90;;;;;;5019663;28;20190;-72
2022/10/28 04:57:01;;;;;;;30.70;16.38;;;11.30;99.90;;;;;;5034167;28;20022;-72
2022/10/28 04:59:27;;;;;;;28.05;18.25;;;11.30;99.90;;;;;;5034035;28;20462;-73
2022/10/28 05:01:52;;;;;;;26.98;15.90;;;11.30;99.90;;;;;;5033994;28;20363;-72
2022/10/28 05:04:18;;;;;;;29.55;16.92;;;11.30;99.90;;;;;;5017743;28;20474;-73
2022/10/28 05:06:44;;;;;;;28.13;17.40;;;11.20;99.90;;;;;;5021217;28;20536;-73
2022/10/28 05:09:09;;;;;;;30.67;18.27;;;11.20;99.90;;;;;;5034283;28;20362;-72
2022/10/28 05:11:35;;;;;;;30.27;17.38;;;11.20;99.90;;;;;;5034056;28;20029;-72
2022/10/28 05:14:01;;;;;;;29.98;18.05;;;11.20;99.90;;;;;;5033515;28;20021;-73
2022/10/28 05:16:26;;;;;;;31.83;19.25;;;11.20;99.90;;;;;;5033584;28;20030;-72
2022/10/28 05:18:52;;;;;;;33.42;19.38;;;11.30;99.90;;;;;;5038876;28;20025;-73
2022/10/28 05:21:18;;;;;;;31.50;19.05;;;11.20;99.90;;;;;;5023644;28;20028;-73
2022/10/28 05:23:43;;;;;;;36.92;20.33;;;11.30;99.90;;;;;;5037951;28;20390;-72
2022/10/28 05:26:10;;;;;;;33.55;19.25;;;11.20;99.90;;;;;;5040664;28;20497;-72
2022/10/28 05:28:35;;;;;;;33.85;19.80;;;11.20;99.90;;;;;;5039052;28;20033;-73
2022/10/28 05:31:01;;;;;;;35.45;19.60;;;11.20;99.90;;;;;;5039240;28;20022;-73
2022/10/28 05:33:27;;;;;;;33.33;19.08;;;11.20;99.90;;;;;;5037825;28;20029;-72
2022/10/28 05:35:52;;;;;;;33.75;18.65;;;11.20;99.90;;;;;;5020901;28;20033;-72
2022/10/28 05:38:18;;;;;;;32.33;17.92;;;11.20;99.90;;;;;;5037759;28;20480;-72
2022/10/28 05:40:43;;;;;;;32.33;19.63;;;11.20;99.90;;;;;;5039194;28;20033;-72
2022/10/28 05:43:09;;;;;;;32.22;18.73;;;11.20;99.90;;;;;;5020331;28;20064;-73
2022/10/28 05:45:36;;;;;;;34.38;19.38;;;11.20;99.90;;;;;;5036931;28;20445;-72
2022/10/28 05:48:01;;;;;;;31.15;18.05;;;11.20;99.90;;;;;;5035986;28;20075;-72
2022/10/28 05:50:27;;;;;;;33.92;19.05;;;11.30;99.90;;;;;;5018777;28;20023;-73
2022/10/28 05:52:56;;;;;;;29.05;16.52;;;11.30;99.90;;;;;;5036456;28;20454;-72
2022/10/28 05:55:24;;;;;;;32.58;17.55;;;11.30;99.90;;;;;;5036697;28;20091;-73
2022/10/28 05:57:51;;;;;;;29.45;17.80;;;11.40;99.90;;;;;;5036412;28;20040;-73
2022/10/28 06:00:19;;;;;;;33.95;18.98;;;11.40;99.90;;;;;;5018549;28;20025;-73
2022/10/28 06:02:45;;;;;;;34.25;18.73;;;11.30;99.90;;;;;;5035987;28;20033;-72
2022/10/28 06:05:11;;;;;;;37.03;19.40;;;11.30;99.90;;;;;;5021224;28;20032;-73
2022/10/28 06:07:38;;;;;;;31.88;18.67;;;11.30;99.90;;;;;;5023734;28;20060;-73
2022/10/28 06:10:06;;;;;;;32.63;18.30;;;11.30;99.90;;;;;;5019870;28;20031;-73
2022/10/28 06:12:32;;;;;;;34.85;18.70;;;11.30;99.90;;;;;;5036098;28;20030;-74
2022/10/28 06:14:58;;;;;;;33.58;17.60;;;11.30;99.90;;;;;;5018299;28;20037;-73
2022/10/28 06:17:24;;;;;;;34.05;17.67;;;11.40;99.90;;;;;;5018295;28;20370;-74
2022/10/28 06:19:49;;;;;;;33.83;18.40;;;11.40;99.90;;;;;;5035676;28;20060;-73
2022/10/28 06:22:15;;;;;;;33.65;18.35;;;11.40;99.90;;;;;;5035644;28;20159;-74
2022/10/28 06:24:41;;;;;;;30.80;17.55;;;11.30;99.90;;;;;;5035731;28;20049;-74
2022/10/28 06:27:06;;;;;;;26.75;15.88;;;11.30;99.90;;;;;;5016578;28;20120;-72
2022/10/28 06:29:33;;;;;;;28.65;16.27;;;11.30;99.90;;;;;;5019517;28;20025;-73
2022/10/28 06:31:59;;;;;;;30.20;16.50;;;11.30;99.90;;;;;;5035541;28;20029;-73
2022/10/28 06:34:24;;;;;;;30.63;17.35;;;11.30;99.90;;;;;;5018024;28;20025;-73
2022/10/28 06:36:50;;;;;;;25.30;15.45;;;11.30;99.90;;;;;;5021338;28;20092;-72
2022/10/28 06:39:16;;;;;;;23.13;14.82;;;11.30;99.90;;;;;;5038696;28;20021;-72
2022/10/28 06:41:42;;;;;;;24.05;15.95;;;11.30;99.90;;;;;;5021654;28;20382;-74
2022/10/28 06:44:08;;;;;;;29.05;17.83;;;11.30;99.90;;;;;;5021806;28;20025;-72
2022/10/28 06:46:33;;;;;;;34.13;18.42;;;11.20;99.90;;;;;;5019544;28;20088;-72
2022/10/28 06:49:02;;;;;;;30.13;16.60;;;11.30;99.90;;;;;;5015677;28;20081;-73
2022/10/28 06:51:28;;;;;;;29.52;16.27;;;11.40;99.90;;;;;;5015609;28;20109;-72
2022/10/28 06:53:54;;;;;;;26.75;15.63;;;11.40;99.90;;;;;;5015664;28;20034;-72
2022/10/28 06:56:26;;;;;;;25.15;15.15;;;11.40;99.90;;;;;;5015886;28;20040;-72
2022/10/28 06:58:53;;;;;;;26.65;16.35;;;11.40;99.90;;;;;;5015486;28;20473;-72
2022/10/28 07:01:19;;;;;;;25.65;14.88;;;11.50;99.90;;;;;;5015172;28;20466;-73
2022/10/28 07:03:45;;;;;;;28.23;16.20;;;11.50;99.90;;;;;;5015493;28;20080;-73
2022/10/28 07:06:11;;;;;;;28.80;14.85;;;11.50;99.90;;;;;;5015410;28;20022;-72
2022/10/28 07:08:37;;;;;;;23.98;15.95;;;11.50;99.90;;;;;;4998236;28;20026;-72
2022/10/28 07:11:02;;;;;;;24.38;15.25;;;11.50;99.90;;;;;;5014821;28;20544;-57
2022/10/28 07:13:28;;;;;;;21.83;14.07;;;11.50;99.90;;;;;;4997456;28;20026;-56
2022/10/28 07:15:56;;;;;;;19.92;13.30;;;11.60;99.90;;;;;;5015627;28;20034;-56
2022/10/28 07:18:24;;;;;;;24.98;14.27;;;11.60;99.90;;;;;;5015117;28;20025;-73
2022/10/28 07:20:49;;;;;;;21.25;13.60;;;11.60;99.90;;;;;;5003780;28;20077;-73
2022/10/28 07:23:15;;;;;;;19.20;12.38;;;11.60;99.90;;;;;;5015275;28;20057;-73
2022/10/28 07:25:41;;;;;;;19.35;13.57;;;11.60;99.90;;;;;;4997431;28;20025;-73
2022/10/28 07:28:07;;;;;;;19.17;12.77;;;11.60;99.90;;;;;;4997726;28;20049;-73
2022/10/28 07:30:33;;;;;;;20.85;13.02;;;11.60;99.90;;;;;;5000453;28;20037;-74
2022/10/28 07:33:00;;;;;;;20.45;12.18;;;11.60;99.90;;;;;;4997173;28;20122;-73
2022/10/28 07:35:29;;;;;;;19.73;13.70;;;11.60;99.90;;;;;;5014880;28;20025;-74
2022/10/28 07:37:55;;;;;;;21.08;13.23;;;11.60;99.90;;;;;;5014549;28;20061;-73
2022/10/28 07:40:22;;;;;;;18.02;11.85;;;11.70;99.90;;;;;;5015011;28;20065;-73
2022/10/28 07:42:47;;;;;;;18.10;11.63;;;11.80;99.90;;;;;;5014627;28;20034;-73
2022/10/28 07:45:13;;;;;;;17.02;11.27;;;11.80;99.90;;;;;;5014733;28;20030;-73
2022/10/28 07:47:39;;;;;;;16.65;11.65;;;11.80;99.90;;;;;;5014594;28;20029;-74
2022/10/28 07:50:06;;;;;;;17.13;11.48;;;11.80;99.90;;;;;;4997359;28;20022;-73
2022/10/28 07:52:33;;;;;;;17.33;11.05;;;11.80;99.90;;;;;;5014280;28;20029;-73
2022/10/28 07:54:59;;;;;;;18.90;12.13;;;11.80;99.90;;;;;;5014822;28;20113;-74
2022/10/28 07:57:24;;;;;;;21.08;13.45;;;11.90;99.90;;;;;;5014498;28;20561;-73
2022/10/28 07:59:50;;;;;;;23.83;14.48;;;11.90;99.90;;;;;;4996755;28;20037;-73
2022/10/28 08:02:18;;;;;;;23.90;14.88;;;12.00;99.90;;;;;;5014697;28;20026;-73
2022/10/28 08:04:44;;;;;;;24.53;15.60;;;12.00;99.90;;;;;;4996853;28;20033;-73
2022/10/28 08:07:10;;;;;;;23.90;15.40;;;12.00;99.90;;;;;;5014267;28;20265;-73
2022/10/28 08:09:36;;;;;;;20.52;14.05;;;11.90;99.90;;;;;;4996357;28;20030;-73
2022/10/28 08:12:02;;;;;;;20.13;13.13;;;11.90;99.90;;;;;;5014754;28;20033;-73
2022/10/28 08:14:28;;;;;;;20.20;13.75;;;11.90;99.90;;;;;;5017523;28;20036;-73
2022/10/28 08:16:53;;;;;;;24.13;14.50;;;11.80;99.90;;;;;;5014939;28;20340;-75
2022/10/28 08:19:19;;;;;;;19.52;13.10;;;11.80;99.90;;;;;;5014809;28;20510;-73
2022/10/28 08:21:45;;;;;;;19.85;14.27;;;11.90;99.90;;;;;;5014382;28;20034;-73
2022/10/28 08:24:11;;;;;;;24.17;14.55;;;11.90;99.90;;;;;;4996426;28;20045;-73
2022/10/28 08:26:37;;;;;;;21.83;14.07;;;12.00;99.90;;;;;;5013560;28;20429;-73
2022/10/28 08:29:02;;;;;;;22.08;13.73;;;12.00;99.90;;;;;;4996228;28;20036;-73
2022/10/28 08:31:30;;;;;;;21.75;13.07;;;12.00;99.90;;;;;;4996433;28;20021;-73
2022/10/28 08:33:56;;;;;;;22.98;14.50;;;12.00;99.90;;;;;;5013734;28;20034;-73
2022/10/28 08:36:21;;;;;;;24.48;15.13;;;12.00;99.90;;;;;;5013939;28;20026;-73
2022/10/28 08:38:47;;;;;;;28.63;15.70;;;12.00;99.90;;;;;;4996354;28;20034;-73
2022/10/28 08:41:37;;;;;;;22.38;14.30;;;12.00;99.90;;;;;;5013905;28;20050;-73
2022/10/28 08:44:30;;;;;;;24.60;14.45;;;12.00;99.90;;;;;;4996471;28;20553;-73
2022/10/28 08:47:14;;;;;;;24.30;15.23;;;12.00;99.90;;;;;;5012667;28;20458;-73
2022/10/28 08:49:41;;;;;;;24.92;13.95;;;12.10;99.90;;;;;;5014025;28;20091;-73
2022/10/28 08:52:31;;;;;;;19.77;14.15;;;12.10;99.90;;;;;;4996064;28;20030;-73
2022/10/28 08:55:06;;;;;;;21.55;14.32;;;12.10;99.90;;;;;;4976163;28;20529;-73
2022/10/28 08:57:43;;;;;;;20.60;13.77;;;12.20;99.90;;;;;;5013944;28;20100;-73
2022/10/28 09:00:20;;;;;;;20.63;14.07;;;12.20;99.90;;;;;;5012719;28;20106;-73
2022/10/28 09:03:01;;;;;;;22.40;14.05;;;12.30;99.90;;;;;;5014066;28;20042;-73
2022/10/28 09:05:27;;;;;;;23.60;13.82;;;12.20;99.90;;;;;;5016665;28;20026;-73
2022/10/28 09:07:54;;;;;;;21.75;13.07;;;12.20;99.90;;;;;;5017579;28;20551;-73
2022/10/28 09:10:34;;;;;;;22.02;14.50;;;12.10;99.90;;;;;;4999940;28;20030;-73
2022/10/28 09:13:25;;;;;;;20.60;13.40;;;12.10;99.90;;;;;;5017545;28;20026;-73
2022/10/28 09:16:00;;;;;;;19.88;13.18;;;12.10;99.90;;;;;;5018069;28;20029;-73
2022/10/28 09:18:36;;;;;;;23.08;13.93;;;12.10;99.90;;;;;;5019554;28;20114;-73
2022/10/28 09:21:04;;;;;;;22.42;13.73;;;12.10;99.90;;;;;;5017337;28;20466;-73
2022/10/28 09:23:39;;;;;;;23.67;13.15;;;12.20;99.90;;;;;;4999353;28;20112;-73
2022/10/28 09:26:27;;;;;;;17.15;11.25;;;12.30;99.90;;;;;;5016895;28;20030;-73
2022/10/28 09:29:25;;;;;;;16.80;11.63;;;12.50;99.90;;;;;;4978744;28;20057;-73
2022/10/28 09:32:24;;;;;;;16.30;11.32;;;12.60;99.90;;;;;;5017154;28;20116;-73
2022/10/28 09:34:57;;;;;;;19.23;13.48;;;12.70;99.90;;;;;;4999590;28;20041;-73
2022/10/28 09:37:34;;;;;;;21.95;13.25;;;12.80;99.90;;;;;;5016840;28;20026;-73
2022/10/28 09:40:12;;;;;;;19.98;12.25;;;12.80;99.90;;;;;;5017210;28;20109;-73
2022/10/28 09:42:56;;;;;;;18.75;12.57;;;12.80;99.90;;;;;;5016248;28;20033;-73
2022/10/28 09:45:27;;;;;;;18.33;12.40;;;12.80;99.90;;;;;;4999395;28;20034;-73
2022/10/28 09:48:25;;;;;;;21.98;12.48;;;12.80;99.90;;;;;;5017057;28;20066;-73
2022/10/28 09:50:53;;;;;;;15.93;11.32;;;12.70;99.90;;;;;;5017114;28;20034;-73
2022/10/28 09:53:49;;;;;;;17.30;12.32;;;12.70;99.90;;;;;;5017007;28;20034;-73
2022/10/28 09:56:15;;;;;;;17.10;10.73;;;12.60;99.90;;;;;;5016996;28;20157;-73
2022/10/28 09:58:45;;;;;;;24.65;16.77;;;12.60;99.90;;;;;;4999059;28;20112;-73
2022/10/28 10:01:12;;;;;;;17.83;12.15;;;12.50;99.90;;;;;;5016593;28;20026;-73
2022/10/28 10:03:39;;;;;;;18.65;11.75;;;12.60;99.90;;;;;;5017024;28;20045;-73
2022/10/28 10:06:14;;;;;;;18.05;11.63;;;12.70;99.90;;;;;;4999361;28;20053;-73
2022/10/28 10:08:40;;;;;;;14.10;11.02;;;12.80;99.90;;;;;;4998865;28;20093;-73
2022/10/28 10:11:20;;;;;;;16.67;11.75;;;13.00;99.90;;;;;;5016243;28;20442;-73
2022/10/28 10:13:45;;;;;;;;;;;13.00;99.90;;;;;;5016729;28;20041;-73
2022/10/28 10:16:20;;;;;;;17.33;11.10;;;13.00;99.90;;;;;;5015165;28;19909;-73
2022/10/28 10:18:50;;;;;;;20.90;13.27;;;13.00;99.90;;;;;;5016405;28;20029;-73
2022/10/28 10:21:18;;;;;;;15.27;10.65;;;13.00;99.90;;;;;;4999055;28;20067;-73
2022/10/28 10:23:44;;;;;;;15.52;10.93;;;13.10;99.90;;;;;;5016167;28;20049;-73
2022/10/28 10:26:15;;;;;;;15.35;11.55;;;13.20;99.90;;;;;;4998565;28;20128;-73
2022/10/28 10:28:47;;;;;;;15.55;12.00;;;13.20;99.90;;;;;;4998324;28;20021;-66
2022/10/28 10:31:25;;;;;;;17.95;11.20;;;13.30;99.90;;;;;;5015882;28;20034;-73
2022/10/28 10:33:53;;;;;;;14.73;10.93;;;13.20;99.90;;;;;;4998205;28;20033;-73
2022/10/28 10:36:22;;;;;;;15.68;11.32;;;13.10;99.90;;;;;;5014721;28;20042;-76
2022/10/28 10:38:54;;;;;;;17.60;12.10;;;13.10;99.90;;;;;;5015804;28;20022;-73
2022/10/28 10:41:41;;;;;;;19.83;13.00;;;13.20;99.90;;;;;;4998327;28;20053;-73
2022/10/28 10:44:22;;;;;;;17.55;12.23;;;13.20;99.90;;;;;;4998372;28;20036;-73
2022/10/28 10:47:12;;;;;;;17.73;12.25;;;13.10;99.90;;;;;;4998731;28;20422;-73
2022/10/28 10:49:37;;;;;;;19.98;13.63;;;13.10;99.90;;;;;;4998557;28;20026;-73
2022/10/28 10:52:14;;;;;;;19.67;13.25;;;13.00;99.90;;;;;;5016014;28;20021;-73
2022/10/28 10:54:55;;;;;;;17.42;12.77;;;13.00;99.90;;;;;;5015866;28;20044;-73
2022/10/28 10:57:21;;;;;;;20.58;12.70;;;13.00;99.90;;;;;;5015841;28;20037;-73
2022/10/28 10:59:49;;;;;;;19.83;13.85;;;13.00;99.90;;;;;;4997868;28;20022;-73
2022/10/28 11:02:31;;;;;;;20.13;14.15;;;12.90;99.90;;;;;;4997853;28;20081;-73
2022/10/28 11:05:03;;;;;;;19.25;13.80;;;12.80;99.90;;;;;;4998336;28;20034;-73
2022/10/28 11:07:30;;;;;;;19.38;13.82;;;12.90;99.90;;;;;;5015669;28;20466;-73
2022/10/28 11:09:56;;;;;;;20.75;14.38;;;13.00;99.90;;;;;;4998028;28;20107;-73
2022/10/28 11:12:30;;;;;;;21.67;13.73;;;13.10;99.90;;;;;;5015119;28;20542;-73
2022/10/28 11:15:18;;;;;;;19.60;12.95;;;13.10;99.90;;;;;;5014766;28;20044;-73
2022/10/28 11:18:24;;;;;;;17.80;12.52;;;13.10;99.90;;;;;;4998042;28;20048;-73
2022/10/28 11:21:03;;;;;;;21.05;13.40;;;13.10;99.90;;;;;;5014718;28;20038;-73
2022/10/28 11:23:40;;;;;;;19.65;13.48;;;13.10;99.90;;;;;;5015270;28;20112;-73
2022/10/28 11:26:14;;;;;;;22.90;13.80;;;13.10;99.90;;;;;;5013850;28;20034;-73
2022/10/28 11:29:06;;;;;;;20.92;13.80;;;13.10;99.90;;;;;;5015323;28;20045;-73
2022/10/28 11:31:31;;;;;;;18.17;12.60;;;13.20;99.90;;;;;;5015183;28;20026;-73
2022/10/28 11:34:00;;;;;;;17.92;12.93;;;13.20;99.90;;;;;;5014948;28;20077;-73
2022/10/28 11:36:38;;;;;;;19.63;12.70;;;13.20;99.90;;;;;;5014866;28;20026;-73
2022/10/28 11:39:09;;;;;;;19.38;12.57;;;13.30;99.90;;;;;;5014889;28;20026;-73
2022/10/28 11:42:03;;;;;;;20.10;12.95;;;13.20;99.90;;;;;;5015214;28;20462;-74
2022/10/28 11:44:45;;;;;;;20.63;13.43;;;13.20;99.90;;;;;;4997362;28;20025;-73
2022/10/28 11:47:26;;;;;;;18.00;13.07;;;13.20;99.90;;;;;;4997049;28;20029;-73
2022/10/28 11:50:08;;;;;;;23.65;14.52;;;13.20;99.90;;;;;;5014881;28;20100;-73
2022/10/28 11:53:00;;;;;;;19.77;13.63;;;13.30;99.90;;;;;;5014321;28;20058;-73
2022/10/28 11:55:42;;;;;;;17.75;12.43;;;13.30;99.90;;;;;;5013539;28;20030;-73
2022/10/28 11:58:30;;;;;;;17.63;11.90;;;13.30;99.90;;;;;;4996885;28;20022;-73
2022/10/28 12:01:29;;;;;;;18.40;13.32;;;13.30;99.90;;;;;;4997506;28;20117;-74
2022/10/28 12:04:04;;;;;;;18.67;12.40;;;13.30;99.90;;;;;;5013208;28;20030;-73
2022/10/28 12:07:07;;;;;;;16.08;12.20;;;13.40;99.90;;;;;;5014976;28;20022;-73
2022/10/28 12:09:52;;;;;;;19.38;13.32;;;13.50;99.90;;;;;;5014134;28;20030;-73
2022/10/28 12:12:35;;;;;;;18.20;12.48;;;13.50;99.90;;;;;;4996629;28;20030;-76
2022/10/28 12:15:12;;;;;;;17.95;12.65;;;13.60;99.90;;;;;;5014551;28;20157;-74
2022/10/28 12:17:44;;;;;;;16.85;12.05;;;13.60;99.90;;;;;;4996878;28;20032;-75
2022/10/28 12:20:23;;;;;;;19.20;13.30;;;13.60;99.90;;;;;;4997111;28;20034;-73
2022/10/28 12:22:53;;;;;;;19.13;13.13;;;13.60;99.90;;;;;;4996673;28;20040;-73
2022/10/28 12:25:24;;;;;;;19.08;13.60;;;13.70;99.90;;;;;;5013919;28;20029;-72
2022/10/28 12:27:54;;;;;;;16.83;13.15;;;13.70;99.90;;;;;;4996442;28;20022;-73
2022/10/28 12:30:40;;;;;;;16.15;12.82;;;13.70;99.90;;;;;;5014416;28;20528;-73
2022/10/28 12:33:18;;;;;;;17.77;12.63;;;13.70;99.90;;;;;;5013921;28;20022;-73
2022/10/28 12:35:50;;;;;;;19.88;13.10;;;13.70;99.90;;;;;;5014702;28;20110;-73
2022/10/28 12:38:25;;;;;;;19.73;12.52;;;13.70;99.90;;;;;;4996376;28;20035;-72
2022/10/28 12:41:21;;;;;;;17.10;13.57;;;13.60;99.90;;;;;;5013968;28;20030;-72
2022/10/28 12:43:53;;;;;;;18.92;13.57;;;13.60;99.90;;;;;;5033448;28;20144;-73
2022/10/28 12:46:30;;;;;;;18.98;13.80;;;13.70;99.90;;;;;;5016060;28;20057;-73
2022/10/28 12:49:02;;;;;;;17.52;12.63;;;13.80;99.90;;;;;;5033635;28;20033;-73